Atlantic Beach, Florida
Current Conditions -  °F | °C
As of 4:52 PM on Friday 24 Oct 2014 (Local Time) from KNRB Reporting Station
Scattered Clouds Scattered Clouds  
Wind Chill: 73°   Ceiling: Unl
Heat Index: 73°   Visibility: 10mi
Dew Point: 56°   Wind: 9mph
Humidity: 55%   Direction: 60°ENE
Pressure: 29.97"   Gusts: NA
Location:  30.33°N, 81.4°W
Report Text: KNRB 242052Z 06008KT 10SM FEW040 SCT250 23/13 A2997 RMK AO2 SLP147 T02280133 56016
Loading
Personal Weather Stations






























Interactive Weather Map New forecast layout! Learn more

10-Day Weather Forecast

Advertisements
Track Severe Weather on mobile